Time;durP1;ratioP1;P1;durP2;ratioP2;P2;SDS_P1;SDS_P2;PMS_P1;PMS_P2;Temp;Humidity;BMP_temperature;BMP_pressure;BME280_temperature;BME280_humidity;BME280_pressure;Samples;Min_cycle;Max_cycle;Signal;HPM_P1;HPM_P2
2020/12/25 00:01:20;;;;;;;20.15;10.15;;;4.80;99.90;;;;;;5075688;28;20372;-71
2020/12/25 00:03:46;;;;;;;17.88;8.82;;;4.70;99.90;;;;;;5075927;28;20017;-71
2020/12/25 00:06:11;;;;;;;19.27;9.80;;;4.70;99.90;;;;;;5077050;28;20465;-71
2020/12/25 00:08:37;;;;;;;16.13;8.60;;;4.60;99.90;;;;;;5077251;28;20103;-72
2020/12/25 00:11:02;;;;;;;17.17;9.02;;;4.60;99.90;;;;;;5077199;28;20029;-71
2020/12/25 00:13:28;;;;;;;14.77;8.77;;;4.60;99.90;;;;;;5075371;28;20040;-71
2020/12/25 00:15:54;;;;;;;16.90;9.57;;;4.60;99.90;;;;;;5076402;28;20082;-71
2020/12/25 00:18:19;;;;;;;17.40;9.40;;;4.60;99.90;;;;;;5077061;28;20021;-71
2020/12/25 00:20:48;;;;;;;15.65;9.30;;;4.50;99.90;;;;;;5077033;28;20024;-71
2020/12/25 00:23:14;;;;;;;17.33;8.93;;;4.50;99.90;;;;;;5076708;28;20473;-71
2020/12/25 00:25:39;;;;;;;14.88;8.82;;;4.50;99.90;;;;;;5076927;28;20020;-71
2020/12/25 00:28:05;;;;;;;16.08;8.50;;;4.50;99.90;;;;;;5076906;28;20074;-72
2020/12/25 00:30:30;;;;;;;18.52;8.52;;;4.50;99.90;;;;;;5076537;28;20029;-72
2020/12/25 00:32:56;;;;;;;17.23;8.90;;;4.40;99.90;;;;;;5076794;28;20024;-72
2020/12/25 00:35:21;;;;;;;17.67;8.25;;;4.40;99.90;;;;;;5076672;28;20082;-71
2020/12/25 00:37:47;;;;;;;19.48;8.15;;;4.40;99.90;;;;;;5076450;28;20017;-71
2020/12/25 00:40:12;;;;;;;15.13;7.55;;;4.40;99.90;;;;;;5074884;28;20094;-72
2020/12/25 00:42:38;;;;;;;18.15;8.10;;;4.40;99.90;;;;;;5076092;28;20063;-72
2020/12/25 00:45:04;;;;;;;12.90;7.18;;;4.30;99.90;;;;;;5076306;28;20032;-71
2020/12/25 00:47:29;;;;;;;14.48;7.82;;;4.30;99.90;;;;;;5076028;28;20035;-71
2020/12/25 00:49:55;;;;;;;16.02;8.40;;;4.30;99.90;;;;;;5076529;28;20028;-72
2020/12/25 00:52:24;;;;;;;20.02;8.40;;;4.30;99.90;;;;;;5076485;28;20033;-71
2020/12/25 00:54:50;;;;;;;16.58;8.00;;;4.30;99.90;;;;;;5076358;28;20415;-71
2020/12/25 00:57:15;;;;;;;14.75;7.65;;;4.20;99.90;;;;;;5076356;28;20462;-72
2020/12/25 00:59:41;;;;;;;16.48;8.23;;;4.20;99.90;;;;;;5075186;28;20017;-71
2020/12/25 01:02:07;;;;;;;19.15;7.97;;;4.30;99.90;;;;;;5075137;28;20021;-71
2020/12/25 01:04:32;;;;;;;17.25;7.68;;;4.20;99.90;;;;;;5076252;28;20024;-71
2020/12/25 01:06:58;;;;;;;14.25;7.47;;;4.20;99.90;;;;;;5075634;28;20112;-71
2020/12/25 01:09:24;;;;;;;16.67;7.72;;;4.20;99.90;;;;;;5074351;28;20107;-71
2020/12/25 01:11:50;;;;;;;17.20;7.18;;;4.20;99.90;;;;;;5076144;28;20067;-71
2020/12/25 01:14:16;;;;;;;15.02;7.60;;;4.30;99.90;;;;;;5075835;28;20090;-71
2020/12/25 01:16:42;;;;;;;15.30;7.10;;;4.20;99.90;;;;;;5074933;28;20033;-71
2020/12/25 01:19:07;;;;;;;12.43;6.78;;;4.20;99.90;;;;;;5075990;28;20029;-72
2020/12/25 01:21:33;;;;;;;16.42;7.30;;;4.20;99.90;;;;;;5075908;28;20540;-71
2020/12/25 01:23:59;;;;;;;13.32;7.20;;;4.10;99.90;;;;;;5074008;28;20025;-71
2020/12/25 01:26:24;;;;;;;12.50;6.88;;;4.10;99.90;;;;;;5075836;28;20039;-71
2020/12/25 01:28:50;;;;;;;15.88;6.88;;;4.10;99.90;;;;;;5075794;28;20024;-71
2020/12/25 01:31:16;;;;;;;15.60;6.60;;;4.00;99.90;;;;;;5075753;28;20505;-71
2020/12/25 01:33:41;;;;;;;12.25;6.07;;;4.10;99.90;;;;;;5074241;28;20469;-71
2020/12/25 01:36:07;;;;;;;14.20;6.97;;;4.00;99.90;;;;;;5075515;28;20028;-71
2020/12/25 01:38:33;;;;;;;15.00;6.55;;;4.00;99.90;;;;;;5074155;28;20063;-72
2020/12/25 01:40:59;;;;;;;15.00;7.05;;;3.90;99.90;;;;;;5075556;28;20021;-71
2020/12/25 01:43:25;;;;;;;14.95;6.20;;;3.90;99.90;;;;;;5075492;28;20029;-71
2020/12/25 01:45:51;;;;;;;16.40;6.75;;;3.90;99.90;;;;;;5073997;28;20039;-71
2020/12/25 01:48:17;;;;;;;15.68;6.22;;;3.90;99.90;;;;;;5075131;28;20028;-71
2020/12/25 01:50:43;;;;;;;13.32;6.35;;;3.90;99.90;;;;;;5073538;28;20135;-71
2020/12/25 01:53:10;;;;;;;14.23;6.50;;;3.80;99.90;;;;;;5075008;28;20485;-71
2020/12/25 01:55:37;;;;;;;15.73;6.13;;;3.80;99.90;;;;;;5075175;28;20028;-71
2020/12/25 01:58:03;;;;;;;17.52;6.82;;;3.80;99.90;;;;;;5074934;28;20066;-71
2020/12/25 02:00:32;;;;;;;15.05;6.50;;;3.70;99.90;;;;;;5056659;28;20024;-71
2020/12/25 02:02:58;;;;;;;17.95;6.40;;;3.80;99.90;;;;;;5074557;28;20028;-71
2020/12/25 02:05:24;;;;;;;16.08;5.82;;;3.70;99.90;;;;;;5075025;28;20024;-71
2020/12/25 02:07:50;;;;;;;13.52;6.10;;;3.70;99.90;;;;;;5074442;28;20032;-71
2020/12/25 02:10:16;;;;;;;14.77;5.88;;;3.70;99.90;;;;;;5074940;28;20024;-71
2020/12/25 02:12:42;;;;;;;14.82;5.88;;;3.70;99.90;;;;;;5074356;28;20105;-71
2020/12/25 02:15:08;;;;;;;13.65;6.18;;;3.70;99.90;;;;;;5074155;28;20072;-71
2020/12/25 02:17:34;;;;;;;12.95;6.05;;;3.60;99.90;;;;;;5073022;28;20440;-71
2020/12/25 02:20:02;;;;;;;16.20;6.03;;;3.60;99.90;;;;;;5072625;28;20130;-71
2020/12/25 02:22:28;;;;;;;13.50;4.97;;;3.60;99.90;;;;;;5074707;28;20023;-71
2020/12/25 02:24:54;;;;;;;10.68;5.03;;;3.50;99.90;;;;;;5074677;28;20474;-71
2020/12/25 02:27:20;;;;;;;12.65;4.07;;;3.60;99.90;;;;;;5074651;28;20056;-71
2020/12/25 02:29:45;;;;;;;13.98;4.82;;;3.50;99.90;;;;;;5074616;28;20029;-71
2020/12/25 02:32:11;;;;;;;10.73;3.88;;;3.50;99.90;;;;;;5074536;28;20032;-71
2020/12/25 02:34:36;;;;;;;13.35;4.60;;;3.50;99.90;;;;;;5074494;28;20039;-71
2020/12/25 02:37:02;;;;;;;9.98;4.10;;;3.40;99.90;;;;;;5074450;28;20031;-72
2020/12/25 02:39:28;;;;;;;15.75;5.22;;;3.30;99.90;;;;;;5074408;28;20473;-72
2020/12/25 02:41:53;;;;;;;11.50;4.18;;;3.20;99.90;;;;;;5074401;28;20057;-71
2020/12/25 02:44:19;;;;;;;8.85;4.00;;;3.20;99.90;;;;;;5074078;28;20542;-71
2020/12/25 02:46:46;;;;;;;16.30;5.68;;;3.20;99.90;;;;;;5074092;28;20424;-71
2020/12/25 02:49:11;;;;;;;9.85;3.83;;;3.20;99.90;;;;;;5074022;28;20028;-71
2020/12/25 02:51:37;;;;;;;10.95;3.85;;;3.20;99.90;;;;;;5073968;28;20028;-72
2020/12/25 02:54:03;;;;;;;13.52;4.43;;;3.10;99.90;;;;;;5074262;28;20025;-71
2020/12/25 02:56:28;;;;;;;13.15;4.20;;;3.00;99.90;;;;;;5073873;28;20024;-71
2020/12/25 02:58:54;;;;;;;11.60;3.80;;;3.00;99.90;;;;;;5072647;28;20050;-71
2020/12/25 03:01:19;;;;;;;14.00;4.47;;;3.00;99.90;;;;;;5072289;28;20108;-71
2020/12/25 03:03:45;;;;;;;13.27;4.28;;;3.00;99.90;;;;;;5074141;28;20052;-71
2020/12/25 03:06:10;;;;;;;8.43;3.92;;;2.90;99.90;;;;;;5074137;28;20028;-71
2020/12/25 03:08:37;;;;;;;16.55;5.38;;;2.90;99.90;;;;;;5074097;28;20473;-71
2020/12/25 03:11:04;;;;;;;11.32;4.38;;;2.80;99.90;;;;;;5073508;28;20544;-71
2020/12/25 03:13:29;;;;;;;9.98;4.70;;;2.80;99.90;;;;;;5074044;28;20032;-71
2020/12/25 03:15:55;;;;;;;10.75;4.80;;;2.70;99.90;;;;;;5072087;28;20374;-71
2020/12/25 03:18:20;;;;;;;9.65;4.28;;;2.70;99.90;;;;;;5073734;28;20025;-71
2020/12/25 03:20:46;;;;;;;15.60;5.15;;;2.70;99.90;;;;;;5073983;28;20018;-71
2020/12/25 03:23:13;;;;;;;18.67;4.47;;;2.70;99.90;;;;;;5072142;28;20088;-71
2020/12/25 03:25:39;;;;;;;9.50;4.22;;;2.70;99.90;;;;;;5073891;28;20037;-71
2020/12/25 03:28:06;;;;;;;11.57;4.07;;;;;;;;;;5073921;28;20024;-71
2020/12/25 03:30:33;;;;;;;13.00;3.78;;;;;;;;;;5073617;28;20028;-71
2020/12/25 03:32:59;;;;;;;18.05;3.85;;;2.40;99.90;;;;;;5077476;28;20028;-72
2020/12/25 03:35:24;;;;;;;8.25;3.58;;;2.50;99.90;;;;;;5077601;28;20423;-72
2020/12/25 03:37:50;;;;;;;10.32;3.22;;;2.50;99.90;;;;;;5077374;28;20048;-72
2020/12/25 03:40:16;;;;;;;11.50;3.05;;;2.60;99.90;;;;;;5077883;28;20024;-72
2020/12/25 03:42:43;;;;;;;14.18;3.55;;;2.60;99.90;;;;;;5076663;28;20025;-72
2020/12/25 03:45:09;;;;;;;14.38;3.70;;;2.70;99.90;;;;;;5076566;28;20020;-72
2020/12/25 03:47:35;;;;;;;9.80;2.78;;;2.70;99.90;;;;;;5077455;28;20115;-72
2020/12/25 03:50:01;;;;;;;11.80;2.80;;;2.70;99.90;;;;;;5077377;28;20517;-72
2020/12/25 03:52:26;;;;;;;8.88;2.60;;;2.70;99.90;;;;;;5077357;28;20051;-72
2020/12/25 03:54:52;;;;;;;16.92;3.72;;;2.70;99.90;;;;;;5077508;28;20075;-72
2020/12/25 03:57:17;;;;;;;9.40;2.72;;;2.70;99.90;;;;;;5076983;28;20032;-72
2020/12/25 03:59:43;;;;;;;10.88;2.40;;;2.80;99.90;;;;;;5077448;28;20028;-72
2020/12/25 04:02:09;;;;;;;12.27;2.88;;;2.90;99.90;;;;;;5076834;28;20031;-72
2020/12/25 04:04:34;;;;;;;11.68;3.75;;;2.90;99.90;;;;;;5076803;28;20024;-72
2020/12/25 04:07:00;;;;;;;14.50;3.05;;;2.80;99.90;;;;;;5075509;28;20027;-72
2020/12/25 04:09:25;;;;;;;8.13;3.25;;;2.70;99.90;;;;;;5076315;28;20442;-72
2020/12/25 04:11:51;;;;;;;15.05;2.97;;;2.50;99.90;;;;;;5077224;28;20365;-72
2020/12/25 04:14:17;;;;;;;18.70;3.10;;;2.40;99.90;;;;;;5076674;28;20040;-72
2020/12/25 04:16:43;;;;;;;11.68;2.63;;;2.30;99.90;;;;;;5076532;28;20032;-72
2020/12/25 04:19:09;;;;;;;13.25;3.28;;;2.20;99.90;;;;;;5077067;28;20049;-72
2020/12/25 04:21:36;;;;;;;7.70;2.60;;;2.10;99.90;;;;;;5075333;28;20027;-72
2020/12/25 04:24:01;;;;;;;13.10;3.50;;;2.00;99.90;;;;;;5076742;28;20013;-72
2020/12/25 04:26:27;;;;;;;9.85;3.10;;;2.00;99.90;;;;;;5076693;28;20377;-72
2020/12/25 04:28:52;;;;;;;11.82;3.05;;;2.00;99.90;;;;;;5076900;28;20032;-72
2020/12/25 04:31:18;;;;;;;11.40;3.13;;;1.90;99.90;;;;;;5076904;28;20466;-72
2020/12/25 04:33:43;;;;;;;19.50;3.70;;;1.80;99.90;;;;;;5076560;28;20535;-71
2020/12/25 04:36:09;;;;;;;11.77;2.85;;;1.80;99.90;;;;;;5076452;28;20033;-72
2020/12/25 04:38:35;;;;;;;12.55;3.20;;;1.80;99.90;;;;;;5076778;28;20025;-72
2020/12/25 04:41:01;;;;;;;9.38;2.92;;;1.60;99.90;;;;;;5076691;28;20024;-72
2020/12/25 04:43:29;;;;;;;11.38;2.35;;;1.50;99.90;;;;;;5075354;28;20020;-72
2020/12/25 04:45:54;;;;;;;11.18;2.60;;;1.30;99.90;;;;;;5075462;28;20056;-72
2020/12/25 04:48:20;;;;;;;7.72;2.35;;;1.10;99.90;;;;;;5076280;28;20051;-72
2020/12/25 04:50:46;;;;;;;11.63;3.03;;;1.10;99.90;;;;;;5076579;28;20207;-72
2020/12/25 04:53:12;;;;;;;11.23;2.83;;;1.00;99.90;;;;;;5076244;28;20024;-72
2020/12/25 04:55:38;;;;;;;9.00;2.53;;;0.90;99.90;;;;;;5076423;28;20035;-72
2020/12/25 04:58:03;;;;;;;17.77;3.22;;;0.80;99.90;;;;;;5076485;28;20107;-72
2020/12/25 05:00:30;;;;;;;10.63;2.70;;;0.70;99.90;;;;;;5074937;28;20021;-72
2020/12/25 05:02:56;;;;;;;15.57;3.30;;;0.70;99.90;;;;;;5076313;28;20017;-71
2020/12/25 05:05:30;;;;;;;16.27;3.58;;;0.60;99.90;;;;;;5075142;28;20029;-71
2020/12/25 05:07:58;;;;;;;15.55;3.28;;;0.70;99.90;;;;;;5076224;28;20023;-71
2020/12/25 05:10:24;;;;;;;15.73;3.42;;;0.70;99.90;;;;;;5075651;28;20062;-72
2020/12/25 05:12:50;;;;;;;13.95;3.00;;;0.60;99.90;;;;;;5074597;28;20080;-71
2020/12/25 05:15:15;;;;;;;11.70;3.15;;;0.50;99.90;;;;;;5075525;28;20097;-72
2020/12/25 05:17:42;;;;;;;10.07;3.13;;;0.40;99.90;;;;;;5076022;28;20028;-72
2020/12/25 05:20:08;;;;;;;7.97;2.90;;;0.30;99.90;;;;;;5075984;28;20099;-72
2020/12/25 05:22:35;;;;;;;18.95;3.28;;;0.20;99.90;;;;;;5075293;28;20358;-72
2020/12/25 05:25:03;;;;;;;10.98;4.80;;;0.10;99.90;;;;;;5075661;28;20031;-72
2020/12/25 05:27:30;;;;;;;12.30;3.22;;;0.10;99.90;;;;;;5074431;28;20024;-72
2020/12/25 05:29:58;;;;;;;16.52;3.67;;;0.00;99.90;;;;;;5074564;28;20024;-72
2020/12/25 05:32:29;;;;;;;11.40;3.65;;;0.00;99.90;;;;;;5075462;28;20028;-72
2020/12/25 05:34:56;;;;;;;14.35;3.15;;;-0.10;99.90;;;;;;5075361;28;20048;-72
2020/12/25 05:37:31;;;;;;;13.68;3.80;;;-0.10;99.90;;;;;;5075687;28;20021;-72
2020/12/25 05:39:56;;;;;;;13.18;3.05;;;-0.20;99.90;;;;;;5075311;28;20024;-72
2020/12/25 05:42:22;;;;;;;11.73;3.35;;;-0.20;99.90;;;;;;5075307;28;20355;-72
2020/12/25 05:44:48;;;;;;;11.30;3.85;;;-0.30;99.90;;;;;;5075241;28;20066;-72
2020/12/25 05:47:15;;;;;;;20.08;3.60;;;-0.30;99.90;;;;;;5075452;28;20031;-72
2020/12/25 05:49:41;;;;;;;11.77;3.72;;;-0.30;99.90;;;;;;5074772;28;20046;-72
2020/12/25 05:52:07;;;;;;;15.70;3.78;;;-0.30;99.90;;;;;;5075321;28;20174;-72
2020/12/25 05:54:34;;;;;;;11.18;3.47;;;-0.40;99.90;;;;;;5074217;28;20059;-72
2020/12/25 05:57:00;;;;;;;15.20;3.53;;;-0.40;99.90;;;;;;5074761;28;20039;-72
2020/12/25 05:59:29;;;;;;;13.15;3.88;;;-0.50;99.90;;;;;;5075219;28;20428;-72
2020/12/25 06:01:58;;;;;;;15.77;4.43;;;-0.50;99.90;;;;;;5074614;28;20025;-72
2020/12/25 06:04:26;;;;;;;17.38;3.90;;;-0.50;99.90;;;;;;5074561;28;20016;-72
2020/12/25 06:06:52;;;;;;;10.38;4.00;;;-0.50;99.90;;;;;;5074909;28;20049;-72
2020/12/25 06:09:19;;;;;;;12.05;4.22;;;-0.60;99.90;;;;;;5075125;28;20590;-72
2020/12/25 06:11:48;;;;;;;12.20;3.97;;;-0.60;99.90;;;;;;5073897;28;20482;-72
2020/12/25 06:14:14;;;;;;;19.30;4.40;;;-0.60;99.90;;;;;;5074720;28;20091;-72
2020/12/25 06:16:44;;;;;;;16.33;4.43;;;-0.60;99.90;;;;;;5073896;28;20065;-72
2020/12/25 06:19:23;;;;;;;18.25;3.88;;;-0.70;99.90;;;;;;5074842;28;20458;-72
2020/12/25 06:21:55;;;;;;;17.52;4.07;;;-0.70;99.90;;;;;;5074726;28;20027;-72
2020/12/25 06:24:25;;;;;;;16.17;4.22;;;-0.70;99.90;;;;;;5074997;28;20365;-72
2020/12/25 06:26:54;;;;;;;19.70;4.65;;;-0.70;99.90;;;;;;5074658;28;20437;-72
2020/12/25 06:29:20;;;;;;;14.73;4.32;;;-0.70;99.90;;;;;;5074586;28;20078;-72
2020/12/25 06:31:48;;;;;;;13.38;5.47;;;-0.80;99.90;;;;;;5074307;28;20377;-71
2020/12/25 06:34:14;;;;;;;13.25;4.90;;;-0.80;99.90;;;;;;5074531;28;20020;-71
2020/12/25 06:36:45;;;;;;;10.10;4.97;;;-0.80;99.90;;;;;;5074154;28;20078;-71
2020/12/25 06:39:13;;;;;;;21.80;8.73;;;-0.80;99.90;;;;;;5074370;28;20028;-72
2020/12/25 06:41:39;;;;;;;20.52;7.47;;;-0.80;99.90;;;;;;5074193;28;20033;-72
2020/12/25 06:44:13;;;;;;;23.10;7.60;;;-0.80;99.90;;;;;;5073216;28;20048;-72
2020/12/25 06:46:46;;;;;;;21.77;6.78;;;-0.60;99.90;;;;;;5074107;28;20047;-72
2020/12/25 06:49:14;;;;;;;29.23;8.45;;;-0.50;99.90;;;;;;5074348;28;20032;-71
2020/12/25 06:51:44;;;;;;;24.15;8.38;;;-0.40;99.90;;;;;;5074294;28;20025;-71
2020/12/25 06:54:26;;;;;;;26.30;7.85;;;-0.30;99.90;;;;;;5074251;28;20024;-72
2020/12/25 06:56:53;;;;;;;25.48;7.80;;;-0.20;99.90;;;;;;5072983;28;20111;-71
2020/12/25 06:59:21;;;;;;;21.60;7.32;;;-0.10;99.90;;;;;;5074169;28;20020;-72
2020/12/25 07:01:48;;;;;;;22.52;7.75;;;0.00;99.90;;;;;;5074190;28;20068;-72
2020/12/25 07:04:30;;;;;;;20.02;7.40;;;0.20;99.90;;;;;;5074147;28;20165;-72
2020/12/25 07:07:00;;;;;;;29.25;7.97;;;0.30;99.90;;;;;;5073770;28;20103;-72
2020/12/25 07:09:44;;;;;;;27.30;7.53;;;0.30;99.90;;;;;;5072958;28;20021;-72
2020/12/25 07:12:16;;;;;;;19.85;8.43;;;0.40;99.90;;;;;;5072617;28;20024;-72
2020/12/25 07:14:42;;;;;;;22.73;7.82;;;0.40;99.90;;;;;;5073431;28;20051;-72
2020/12/25 07:17:09;;;;;;;25.15;8.25;;;0.50;99.90;;;;;;5073706;28;20048;-72
2020/12/25 07:19:35;;;;;;;22.77;6.80;;;0.50;99.90;;;;;;5072274;28;20028;-72
2020/12/25 07:22:03;;;;;;;19.42;7.93;;;0.50;99.90;;;;;;5073967;28;20017;-72
2020/12/25 07:24:28;;;;;;;30.90;8.68;;;0.50;99.90;;;;;;5073904;28;20024;-72
2020/12/25 07:26:55;;;;;;;30.17;7.72;;;0.50;99.90;;;;;;5072110;28;20082;-72
2020/12/25 07:29:21;;;;;;;25.30;7.95;;;0.60;99.90;;;;;;5073598;28;20359;-72
2020/12/25 07:31:49;;;;;;;23.70;8.05;;;0.70;99.90;;;;;;5073854;28;20059;-72
2020/12/25 07:34:18;;;;;;;25.83;7.80;;;0.80;99.90;;;;;;5073550;28;20077;-72
2020/12/25 07:36:45;;;;;;;18.88;7.03;;;0.80;99.90;;;;;;5073764;28;20024;-72
2020/12/25 07:39:11;;;;;;;16.20;6.10;;;0.90;99.90;;;;;;5073547;28;20043;-72
2020/12/25 07:41:37;;;;;;;22.52;7.55;;;1.00;99.90;;;;;;5073181;28;20028;-72
2020/12/25 07:44:03;;;;;;;18.48;6.80;;;1.10;99.90;;;;;;5072605;28;20466;-72
2020/12/25 07:46:31;;;;;;;19.50;6.40;;;1.10;99.90;;;;;;5073733;28;20021;-72
2020/12/25 07:48:58;;;;;;;24.33;6.35;;;1.10;99.90;;;;;;5073212;28;20054;-72
2020/12/25 07:51:24;;;;;;;24.55;7.00;;;1.20;99.90;;;;;;5073697;28;20040;-72
2020/12/25 07:53:53;;;;;;;17.77;6.22;;;1.20;99.90;;;;;;5073741;28;20021;-71
2020/12/25 07:56:21;;;;;;;23.65;8.02;;;1.20;99.90;;;;;;5072249;28;20040;-72
2020/12/25 07:58:49;;;;;;;19.77;6.43;;;1.30;99.90;;;;;;5071846;28;20444;-72
2020/12/25 08:01:18;;;;;;;20.15;6.70;;;1.40;99.90;;;;;;5073669;28;20047;-72
2020/12/25 08:03:43;;;;;;;23.20;7.18;;;1.50;99.90;;;;;;5073674;28;20100;-72
2020/12/25 08:06:12;;;;;;;19.35;7.30;;;1.70;99.90;;;;;;5073600;28;20453;-72
2020/12/25 08:08:38;;;;;;;15.38;7.00;;;1.70;99.90;;;;;;5073265;28;20380;-72
2020/12/25 08:11:04;;;;;;;22.52;7.35;;;1.70;99.90;;;;;;5071698;28;20493;-72
2020/12/25 08:13:34;;;;;;;16.95;6.43;;;1.70;99.90;;;;;;5072322;28;20098;-72
2020/12/25 08:16:00;;;;;;;22.70;8.15;;;1.70;99.90;;;;;;5071563;28;20136;-72
2020/12/25 08:18:27;;;;;;;17.83;5.60;;;1.70;99.90;;;;;;5074532;28;20078;-72
2020/12/25 08:20:54;;;;;;;21.75;6.70;;;1.70;99.90;;;;;;5077087;28;20485;-72
2020/12/25 08:23:19;;;;;;;14.43;5.38;;;1.70;99.90;;;;;;5075259;28;20060;-72
2020/12/25 08:25:52;;;;;;;22.48;6.07;;;1.70;99.90;;;;;;5077028;28;20056;-72
2020/12/25 08:28:25;;;;;;;;;;;1.80;99.90;;;;;;5077110;28;20111;-72
2020/12/25 08:30:50;;;;;;;15.63;6.15;;;1.80;99.90;;;;;;5075388;28;19904;-73
2020/12/25 08:33:26;;;;;;;19.08;6.15;;;1.90;99.90;;;;;;5075286;28;20405;-71
2020/12/25 08:35:52;;;;;;;18.25;6.53;;;1.80;99.90;;;;;;5076576;28;20418;-72
2020/12/25 08:38:18;;;;;;;20.92;6.18;;;1.80;99.90;;;;;;5076775;28;20024;-72
2020/12/25 08:40:47;;;;;;;20.85;5.70;;;1.90;99.90;;;;;;5076482;28;20369;-72
2020/12/25 08:43:15;;;;;;;16.38;6.07;;;2.00;99.90;;;;;;5076441;28;20016;-72
2020/12/25 08:45:59;;;;;;;14.05;6.00;;;2.00;99.90;;;;;;5076655;28;20339;-72
2020/12/25 08:48:26;;;;;;;22.95;6.07;;;2.10;99.90;;;;;;5075183;28;20031;-72
2020/12/25 08:51:06;;;;;;;20.58;6.72;;;2.20;99.90;;;;;;5075169;28;20032;-72
2020/12/25 08:53:32;;;;;;;18.90;6.85;;;2.30;99.90;;;;;;5076268;28;20078;-72
2020/12/25 08:55:57;;;;;;;19.88;6.47;;;2.20;99.90;;;;;;5075828;28;20025;-72
2020/12/25 08:58:23;;;;;;;22.25;6.35;;;2.20;99.90;;;;;;5074624;28;20025;-72
2020/12/25 09:01:04;;;;;;;16.52;6.72;;;2.50;99.90;;;;;;5076068;28;20020;-72
2020/12/25 09:03:45;;;;;;;29.60;7.55;;;2.70;99.90;;;;;;5076336;28;20020;-72
2020/12/25 09:06:11;;;;;;;16.23;5.38;;;3.40;99.90;;;;;;5076293;28;20029;-72
2020/12/25 09:08:37;;;;;;;14.68;4.60;;;4.70;99.90;;;;;;5074463;28;20119;-72
2020/12/25 09:11:12;;;;;;;20.35;4.70;;;5.20;99.90;;;;;;5075961;28;20054;-72
2020/12/25 09:13:39;;;;;;;10.93;4.32;;;4.90;99.90;;;;;;5076142;28;20025;-72
2020/12/25 09:16:05;;;;;;;15.88;4.70;;;4.60;99.90;;;;;;5075342;28;20144;-72
2020/12/25 09:18:31;;;;;;;16.35;4.82;;;4.10;99.90;;;;;;5074568;28;20092;-72
2020/12/25 09:20:57;;;;;;;13.27;4.30;;;3.80;99.90;;;;;;5075953;28;20513;-72
2020/12/25 09:23:22;;;;;;;22.30;4.60;;;3.60;99.90;;;;;;5075961;28;20113;-72
2020/12/25 09:25:48;;;;;;;19.52;5.55;;;3.40;99.90;;;;;;5074477;28;20025;-72
2020/12/25 09:28:14;;;;;;;15.75;5.45;;;3.20;99.90;;;;;;5075847;28;20114;-72
2020/12/25 09:30:39;;;;;;;23.13;5.55;;;3.10;99.90;;;;;;5075313;28;20464;-73
2020/12/25 09:33:05;;;;;;;8.93;5.43;;;3.10;99.90;;;;;;5057255;28;20025;-72
2020/12/25 09:35:31;;;;;;;18.50;4.93;;;2.90;99.90;;;;;;5075590;28;20031;-72
2020/12/25 09:37:56;;;;;;;13.75;4.90;;;2.80;99.90;;;;;;5075671;28;20060;-72
2020/12/25 09:40:22;;;;;;;17.30;5.72;;;2.80;99.90;;;;;;5075608;28;20028;-72
2020/12/25 09:42:47;;;;;;;17.20;6.15;;;2.80;99.90;;;;;;5075555;28;20052;-72
2020/12/25 09:45:13;;;;;;;14.88;5.25;;;2.80;99.90;;;;;;5075543;28;20024;-72
2020/12/25 09:47:38;;;;;;;19.98;5.70;;;2.90;99.90;;;;;;5074942;28;20031;-72
2020/12/25 09:50:04;;;;;;;11.57;5.68;;;2.90;99.90;;;;;;5075431;28;20035;-72
2020/12/25 09:52:30;;;;;;;18.75;5.85;;;3.00;99.90;;;;;;5074823;28;20028;-72
2020/12/25 09:54:56;;;;;;;16.23;5.75;;;3.10;99.90;;;;;;5073420;28;20480;-72
2020/12/25 09:57:23;;;;;;;13.90;4.88;;;3.20;99.90;;;;;;5075254;28;20044;-72
2020/12/25 09:59:48;;;;;;;13.38;4.50;;;3.30;99.90;;;;;;5073981;28;20099;-72
2020/12/25 10:02:16;;;;;;;11.07;5.25;;;3.50;99.90;;;;;;5074045;28;20098;-72
2020/12/25 10:04:41;;;;;;;18.02;4.57;;;3.60;99.90;;;;;;5074875;28;20013;-72
2020/12/25 10:07:07;;;;;;;11.65;4.53;;;3.70;99.90;;;;;;5056628;28;20032;-72
2020/12/25 10:09:32;;;;;;;10.57;4.32;;;3.70;99.90;;;;;;5073603;28;20025;-72
2020/12/25 10:11:58;;;;;;;12.77;5.22;;;3.70;99.90;;;;;;5057434;28;20462;-72
2020/12/25 10:14:23;;;;;;;11.88;5.10;;;3.90;99.90;;;;;;5073237;28;20153;-72
2020/12/25 10:16:49;;;;;;;15.13;4.60;;;4.80;99.90;;;;;;5056948;28;20032;-73
2020/12/25 10:19:15;;;;;;;10.85;4.25;;;4.90;99.90;;;;;;5074804;28;20048;-72
2020/12/25 10:21:41;;;;;;;12.98;4.15;;;4.50;99.90;;;;;;5074797;28;20048;-72
2020/12/25 10:24:06;;;;;;;11.00;4.20;;;4.20;99.90;;;;;;5074418;28;20055;-72
2020/12/25 10:26:32;;;;;;;15.23;5.25;;;4.10;99.90;;;;;;5074740;28;20063;-72
2020/12/25 10:28:57;;;;;;;14.80;4.72;;;3.90;99.90;;;;;;5074575;28;20090;-72
2020/12/25 10:31:23;;;;;;;14.60;5.43;;;3.90;99.90;;;;;;5073302;28;20128;-72
2020/12/25 10:33:48;;;;;;;13.82;5.57;;;3.90;99.90;;;;;;5074614;28;20036;-72
2020/12/25 10:36:14;;;;;;;14.45;5.80;;;3.90;99.90;;;;;;5073288;28;20032;-72
2020/12/25 10:38:39;;;;;;;12.13;6.03;;;4.00;99.90;;;;;;5074214;28;20534;-72
2020/12/25 10:41:07;;;;;;;16.60;6.07;;;4.20;99.90;;;;;;5073635;28;20381;-72
2020/12/25 10:43:32;;;;;;;14.20;6.82;;;4.30;99.90;;;;;;5073033;28;20477;-72
2020/12/25 10:45:58;;;;;;;16.90;6.30;;;4.50;99.90;;;;;;5072992;28;20028;-72
2020/12/25 10:48:24;;;;;;;13.90;5.85;;;4.40;99.90;;;;;;5072573;28;20029;-72
2020/12/25 10:50:49;;;;;;;19.55;7.00;;;4.30;99.90;;;;;;5073788;28;20029;-72
2020/12/25 10:53:15;;;;;;;17.65;6.72;;;4.20;99.90;;;;;;5074266;28;20093;-72
2020/12/25 10:55:41;;;;;;;21.00;7.88;;;4.20;99.90;;;;;;5073616;28;20028;-72
2020/12/25 10:58:06;;;;;;;17.08;7.82;;;4.20;99.90;;;;;;5073967;28;20033;-72
2020/12/25 11:00:32;;;;;;;12.88;6.63;;;4.20;99.90;;;;;;5072789;28;20098;-72
2020/12/25 11:02:57;;;;;;;14.70;5.65;;;4.20;99.90;;;;;;5072677;28;20024;-72
2020/12/25 11:05:23;;;;;;;17.75;8.88;;;4.20;99.90;;;;;;5072348;28;20564;-72
2020/12/25 11:07:48;;;;;;;12.07;7.35;;;4.20;99.90;;;;;;5073845;28;20016;-72
2020/12/25 11:10:15;;;;;;;13.35;5.43;;;4.20;99.90;;;;;;5074091;28;20029;-72
2020/12/25 11:12:41;;;;;;;14.05;5.20;;;4.20;99.90;;;;;;5073719;28;20469;-72
2020/12/25 11:15:06;;;;;;;9.68;4.80;;;4.10;99.90;;;;;;5073456;28;20071;-72
2020/12/25 11:17:32;;;;;;;20.15;4.70;;;4.00;99.90;;;;;;5072332;28;20027;-72
2020/12/25 11:19:58;;;;;;;13.50;5.30;;;4.00;99.90;;;;;;5073742;28;20095;-72
2020/12/25 11:22:23;;;;;;;10.10;4.53;;;4.00;99.90;;;;;;5073713;28;20358;-72
2020/12/25 11:24:49;;;;;;;9.73;4.40;;;4.00;99.90;;;;;;5073954;28;20412;-72
2020/12/25 11:27:15;;;;;;;7.00;4.00;;;4.00;99.90;;;;;;5073658;28;20032;-72
2020/12/25 11:29:41;;;;;;;15.20;4.53;;;4.20;99.90;;;;;;5073865;28;20028;-72
2020/12/25 11:32:06;;;;;;;10.68;3.60;;;4.40;99.90;;;;;;5073612;28;20112;-72
2020/12/25 11:34:32;;;;;;;7.90;3.58;;;4.30;99.90;;;;;;5072402;28;20046;-72
2020/12/25 11:36:57;;;;;;;6.72;3.50;;;4.40;99.90;;;;;;5073746;28;20380;-72
2020/12/25 11:39:23;;;;;;;10.73;3.80;;;4.40;99.90;;;;;;5073535;28;20021;-72
2020/12/25 11:41:48;;;;;;;10.60;4.53;;;4.50;99.90;;;;;;5073250;28;20013;-72
2020/12/25 11:44:14;;;;;;;9.98;4.30;;;4.50;99.90;;;;;;5073750;28;20028;-72
2020/12/25 11:46:40;;;;;;;12.95;4.20;;;4.50;99.90;;;;;;5073462;28;20073;-72
2020/12/25 11:49:07;;;;;;;10.95;4.60;;;4.70;99.90;;;;;;5073471;28;20032;-72
2020/12/25 11:51:33;;;;;;;12.02;4.47;;;4.80;99.90;;;;;;5072545;28;20021;-72
2020/12/25 11:53:59;;;;;;;12.05;4.43;;;5.00;99.90;;;;;;5077447;28;20416;-72
2020/12/25 11:56:29;;;;;;;9.57;4.03;;;4.90;99.90;;;;;;5077489;28;20027;-72
2020/12/25 11:58:55;;;;;;;11.43;3.97;;;4.90;99.90;;;;;;5077466;28;20095;-72
2020/12/25 12:01:21;;;;;;;11.88;4.18;;;4.80;99.90;;;;;;5076941;28;20021;-73
2020/12/25 12:03:46;;;;;;;11.18;4.03;;;4.80;99.90;;;;;;5077234;28;20031;-72
2020/12/25 12:06:18;;;;;;;10.93;3.83;;;4.70;99.90;;;;;;5075856;28;20433;-72
2020/12/25 12:08:44;;;;;;;10.38;3.55;;;4.70;99.90;;;;;;5077310;28;20025;-73
2020/12/25 12:11:10;;;;;;;7.18;3.60;;;4.60;99.90;;;;;;5077287;28;20031;-72
2020/12/25 12:13:35;;;;;;;10.55;3.40;;;4.50;99.90;;;;;;5077268;28;20098;-72
2020/12/25 12:16:01;;;;;;;12.50;3.20;;;4.60;99.90;;;;;;5075219;28;20049;-71
2020/12/25 12:18:27;;;;;;;6.45;2.88;;;4.50;99.90;;;;;;5076852;28;20027;-72
2020/12/25 12:20:52;;;;;;;10.80;3.35;;;4.60;99.90;;;;;;5077117;28;20028;-72
2020/12/25 12:23:18;;;;;;;10.38;3.65;;;4.60;99.90;;;;;;5077108;28;20384;-72
2020/12/25 12:25:43;;;;;;;8.40;2.83;;;4.60;99.90;;;;;;5076766;28;20035;-72
2020/12/25 12:28:09;;;;;;;9.63;2.80;;;4.60;99.90;;;;;;5077017;28;20028;-72
2020/12/25 12:30:34;;;;;;;12.85;3.35;;;4.60;99.90;;;;;;5076949;28;20029;-72
2020/12/25 12:33:00;;;;;;;8.75;2.95;;;4.60;99.90;;;;;;5076944;28;20024;-72
2020/12/25 12:35:26;;;;;;;11.75;3.58;;;4.60;99.90;;;;;;5076796;28;20411;-72
2020/12/25 12:37:52;;;;;;;10.02;3.10;;;4.60;99.90;;;;;;5076839;28;20032;-72
2020/12/25 12:40:18;;;;;;;12.18;3.70;;;4.60;99.90;;;;;;5076772;28;20027;-72
2020/12/25 12:42:44;;;;;;;13.90;3.38;;;4.70;99.90;;;;;;5076768;28;20032;-73
2020/12/25 12:45:09;;;;;;;12.88;2.88;;;4.70;99.90;;;;;;5076688;28;20045;-72